sensor_id;sensor_type;location;lat;lon;timestamp;pressure;altitude;pressure_sealevel;temperature;humidity
61870;BME280;47810;42.264;23.826;2023-04-04T00:00:20;92466.56;;;6.24;95.66
61870;BME280;47810;42.264;23.826;2023-04-04T00:02:51;92461.78;;;6.42;94.57
61870;BME280;47810;42.264;23.826;2023-04-04T00:05:16;92476.56;;;6.43;94.03
61870;BME280;47810;42.264;23.826;2023-04-04T00:07:45;92460.84;;;6.43;94.28
61870;BME280;47810;42.264;23.826;2023-04-04T00:10:11;92455.81;;;6.40;94.34
61870;BME280;47810;42.264;23.826;2023-04-04T00:12:37;92451.03;;;6.34;94.70
61870;BME280;47810;42.264;23.826;2023-04-04T00:15:03;92462.34;;;6.34;94.69
61870;BME280;47810;42.264;23.826;2023-04-04T00:17:28;92460.84;;;6.43;94.74
61870;BME280;47810;42.264;23.826;2023-04-04T00:19:54;92451.81;;;6.47;94.09
61870;BME280;47810;42.264;23.826;2023-04-04T00:22:21;92443.22;;;6.45;93.88
61870;BME280;47810;42.264;23.826;2023-04-04T00:24:46;92439.66;;;6.46;93.80
61870;BME280;47810;42.264;23.826;2023-04-04T00:27:13;92434.59;;;6.56;93.43
61870;BME280;47810;42.264;23.826;2023-04-04T00:29:38;92436.69;;;6.50;93.88
61870;BME280;47810;42.264;23.826;2023-04-04T00:32:04;92437.97;;;6.45;95.07
61870;BME280;47810;42.264;23.826;2023-04-04T00:34:30;92438.66;;;6.36;95.57
61870;BME280;47810;42.264;23.826;2023-04-04T00:36:55;92424.69;;;6.35;95.56
61870;BME280;47810;42.264;23.826;2023-04-04T00:39:21;92417.91;;;6.33;96.06
61870;BME280;47810;42.264;23.826;2023-04-04T00:41:48;92430.50;;;6.27;95.83
61870;BME280;47810;42.264;23.826;2023-04-04T00:44:14;92424.41;;;6.27;96.11
61870;BME280;47810;42.264;23.826;2023-04-04T00:46:39;92430.28;;;6.30;95.91
61870;BME280;47810;42.264;23.826;2023-04-04T00:49:05;92420.22;;;6.24;95.44
61870;BME280;47810;42.264;23.826;2023-04-04T00:51:31;92413.66;;;6.43;94.94
61870;BME280;47810;42.264;23.826;2023-04-04T00:53:56;92418.28;;;6.39;94.35
61870;BME280;47810;42.264;23.826;2023-04-04T00:56:23;92417.22;;;6.42;93.60
61870;BME280;47810;42.264;23.826;2023-04-04T00:58:49;92421.19;;;6.47;93.32
61870;BME280;47810;42.264;23.826;2023-04-04T01:01:15;92419.47;;;6.59;93.28
61870;BME280;47810;42.264;23.826;2023-04-04T01:03:41;92422.56;;;6.64;93.00
61870;BME280;47810;42.264;23.826;2023-04-04T01:06:06;92420.91;;;6.63;92.76
61870;BME280;47810;42.264;23.826;2023-04-04T01:08:32;92428.94;;;6.73;92.76
61870;BME280;47810;42.264;23.826;2023-04-04T01:11:00;92420.50;;;6.81;92.91
61870;BME280;47810;42.264;23.826;2023-04-04T01:13:26;92422.50;;;6.77;92.81
61870;BME280;47810;42.264;23.826;2023-04-04T01:15:51;92422.13;;;6.70;93.23
61870;BME280;47810;42.264;23.826;2023-04-04T01:18:17;92421.44;;;6.80;93.29
61870;BME280;47810;42.264;23.826;2023-04-04T01:20:51;92422.63;;;6.75;93.20
61870;BME280;47810;42.264;23.826;2023-04-04T01:23:20;92419.56;;;6.82;92.98
61870;BME280;47810;42.264;23.826;2023-04-04T01:25:48;92422.66;;;6.87;92.92
61870;BME280;47810;42.264;23.826;2023-04-04T01:28:14;92424.28;;;6.76;92.60
61870;BME280;47810;42.264;23.826;2023-04-04T01:30:39;92426.09;;;6.76;93.56
61870;BME280;47810;42.264;23.826;2023-04-04T01:35:34;92431.16;;;6.66;94.56
61870;BME280;47810;42.264;23.826;2023-04-04T01:40:31;92426.31;;;6.73;94.44
61870;BME280;47810;42.264;23.826;2023-04-04T01:43:01;92420.44;;;6.69;94.63
61870;BME280;47810;42.264;23.826;2023-04-04T01:45:27;92415.22;;;6.69;94.53
61870;BME280;47810;42.264;23.826;2023-04-04T01:47:54;92424.03;;;6.68;94.68
61870;BME280;47810;42.264;23.826;2023-04-04T01:50:21;92410.72;;;6.83;94.31
61870;BME280;47810;42.264;23.826;2023-04-04T01:52:46;92417.38;;;6.75;93.79
61870;BME280;47810;42.264;23.826;2023-04-04T01:55:12;92415.59;;;6.76;93.84
61870;BME280;47810;42.264;23.826;2023-04-04T01:57:38;92408.22;;;6.81;93.40
61870;BME280;47810;42.264;23.826;2023-04-04T02:00:03;92413.34;;;6.83;92.64
61870;BME280;47810;42.264;23.826;2023-04-04T02:02:30;92414.09;;;6.85;93.28
61870;BME280;47810;42.264;23.826;2023-04-04T02:04:55;92414.56;;;6.90;92.89
61870;BME280;47810;42.264;23.826;2023-04-04T02:07:21;92403.34;;;6.88;92.94
61870;BME280;47810;42.264;23.826;2023-04-04T02:09:46;92412.56;;;6.93;92.39
61870;BME280;47810;42.264;23.826;2023-04-04T02:12:12;92408.31;;;7.04;92.18
61870;BME280;47810;42.264;23.826;2023-04-04T02:14:37;92418.81;;;7.15;91.47
61870;BME280;47810;42.264;23.826;2023-04-04T02:17:03;92415.06;;;6.95;91.87
61870;BME280;47810;42.264;23.826;2023-04-04T02:19:28;92415.25;;;6.81;91.66
61870;BME280;47810;42.264;23.826;2023-04-04T02:21:54;92413.16;;;6.97;91.76
61870;BME280;47810;42.264;23.826;2023-04-04T02:24:38;92419.31;;;6.85;92.00
61870;BME280;47810;42.264;23.826;2023-04-04T02:27:04;92423.91;;;6.94;92.04
61870;BME280;47810;42.264;23.826;2023-04-04T02:29:29;92418.66;;;6.94;91.65
61870;BME280;47810;42.264;23.826;2023-04-04T02:31:55;92420.91;;;6.98;91.47
61870;BME280;47810;42.264;23.826;2023-04-04T02:34:23;92414.59;;;7.01;90.80
61870;BME280;47810;42.264;23.826;2023-04-04T02:36:48;92422.34;;;7.03;91.21
61870;BME280;47810;42.264;23.826;2023-04-04T02:39:14;92421.06;;;7.08;90.38
61870;BME280;47810;42.264;23.826;2023-04-04T02:41:40;92418.97;;;6.89;90.69
61870;BME280;47810;42.264;23.826;2023-04-04T02:44:05;92427.44;;;6.93;91.61
61870;BME280;47810;42.264;23.826;2023-04-04T02:46:33;92431.69;;;7.18;91.39
61870;BME280;47810;42.264;23.826;2023-04-04T02:48:58;92429.91;;;7.07;91.07
61870;BME280;47810;42.264;23.826;2023-04-04T02:51:26;92432.06;;;7.24;90.14
61870;BME280;47810;42.264;23.826;2023-04-04T02:53:51;92434.63;;;7.02;90.87
61870;BME280;47810;42.264;23.826;2023-04-04T02:56:17;92432.09;;;6.89;92.07
61870;BME280;47810;42.264;23.826;2023-04-04T02:58:42;92436.63;;;6.63;92.39
61870;BME280;47810;42.264;23.826;2023-04-04T03:01:08;92435.75;;;6.75;90.63
61870;BME280;47810;42.264;23.826;2023-04-04T03:03:33;92439.09;;;6.78;89.61
61870;BME280;47810;42.264;23.826;2023-04-04T03:05:59;92436.47;;;6.53;90.07
61870;BME280;47810;42.264;23.826;2023-04-04T03:08:26;92433.91;;;6.65;90.22
61870;BME280;47810;42.264;23.826;2023-04-04T03:10:52;92433.97;;;6.52;90.23
61870;BME280;47810;42.264;23.826;2023-04-04T03:13:17;92429.09;;;6.35;90.18
61870;BME280;47810;42.264;23.826;2023-04-04T03:15:43;92420.41;;;6.34;89.46
61870;BME280;47810;42.264;23.826;2023-04-04T03:18:08;92428.34;;;6.45;88.65
61870;BME280;47810;42.264;23.826;2023-04-04T03:20:34;92427.03;;;6.51;87.87
61870;BME280;47810;42.264;23.826;2023-04-04T03:23:00;92431.44;;;6.50;87.32
61870;BME280;47810;42.264;23.826;2023-04-04T03:25:25;92423.47;;;6.52;86.79
61870;BME280;47810;42.264;23.826;2023-04-04T03:27:51;92430.84;;;6.47;86.81
61870;BME280;47810;42.264;23.826;2023-04-04T03:30:16;92422.91;;;5.99;88.48
61870;BME280;47810;42.264;23.826;2023-04-04T03:32:42;92415.28;;;5.96;89.49
61870;BME280;47810;42.264;23.826;2023-04-04T03:35:08;92415.59;;;6.04;89.05
61870;BME280;47810;42.264;23.826;2023-04-04T03:37:33;92403.09;;;6.07;89.55
61870;BME280;47810;42.264;23.826;2023-04-04T03:39:59;92401.88;;;5.88;89.03
61870;BME280;47810;42.264;23.826;2023-04-04T03:42:25;92392.63;;;6.07;88.27
61870;BME280;47810;42.264;23.826;2023-04-04T03:44:55;92397.91;;;5.95;88.38
61870;BME280;47810;42.264;23.826;2023-04-04T03:47:22;92396.63;;;5.88;89.09
61870;BME280;47810;42.264;23.826;2023-04-04T03:49:47;92396.84;;;5.84;89.63
61870;BME280;47810;42.264;23.826;2023-04-04T03:52:15;92390.22;;;5.92;90.27
61870;BME280;47810;42.264;23.826;2023-04-04T03:54:42;92394.09;;;5.86;90.24
61870;BME280;47810;42.264;23.826;2023-04-04T03:57:07;92397.28;;;5.78;90.83
61870;BME280;47810;42.264;23.826;2023-04-04T03:59:33;92394.94;;;5.99;90.60
61870;BME280;47810;42.264;23.826;2023-04-04T04:01:59;92392.31;;;5.87;90.85
61870;BME280;47810;42.264;23.826;2023-04-04T04:04:25;92392.09;;;6.02;90.24
61870;BME280;47810;42.264;23.826;2023-04-04T04:06:50;92397.06;;;5.94;88.97
61870;BME280;47810;42.264;23.826;2023-04-04T04:09:16;92413.00;;;5.78;89.07
61870;BME280;47810;42.264;23.826;2023-04-04T04:11:42;92408.78;;;5.89;89.23
61870;BME280;47810;42.264;23.826;2023-04-04T04:14:07;92415.84;;;6.12;86.97
61870;BME280;47810;42.264;23.826;2023-04-04T04:16:33;92414.59;;;6.18;87.01
61870;BME280;47810;42.264;23.826;2023-04-04T04:18:58;92412.06;;;6.16;86.75
61870;BME280;47810;42.264;23.826;2023-04-04T04:21:24;92416.28;;;6.06;87.44
61870;BME280;47810;42.264;23.826;2023-04-04T04:23:52;92423.00;;;6.10;87.27
61870;BME280;47810;42.264;23.826;2023-04-04T04:26:18;92424.28;;;6.04;87.88
61870;BME280;47810;42.264;23.826;2023-04-04T04:28:43;92416.31;;;5.93;88.47
61870;BME280;47810;42.264;23.826;2023-04-04T04:31:09;92413.75;;;6.17;88.56
61870;BME280;47810;42.264;23.826;2023-04-04T04:33:35;92407.28;;;6.10;88.85
61870;BME280;47810;42.264;23.826;2023-04-04T04:36:01;92413.25;;;6.12;88.64
61870;BME280;47810;42.264;23.826;2023-04-04T04:38:27;92414.63;;;5.92;88.03
61870;BME280;47810;42.264;23.826;2023-04-04T04:40:53;92417.44;;;6.15;87.29
61870;BME280;47810;42.264;23.826;2023-04-04T04:43:18;92422.72;;;6.02;87.21
61870;BME280;47810;42.264;23.826;2023-04-04T04:45:44;92422.19;;;5.97;87.87
61870;BME280;47810;42.264;23.826;2023-04-04T04:48:10;92426.28;;;5.88;88.32
61870;BME280;47810;42.264;23.826;2023-04-04T04:50:35;92422.84;;;6.00;86.63
61870;BME280;47810;42.264;23.826;2023-04-04T04:53:01;92431.63;;;5.99;87.39
61870;BME280;47810;42.264;23.826;2023-04-04T04:55:26;92436.03;;;5.99;87.15
61870;BME280;47810;42.264;23.826;2023-04-04T04:57:52;92431.94;;;5.95;87.77
61870;BME280;47810;42.264;23.826;2023-04-04T05:00:18;92437.13;;;6.20;86.99
61870;BME280;47810;42.264;23.826;2023-04-04T05:02:43;92434.28;;;6.23;87.22
61870;BME280;47810;42.264;23.826;2023-04-04T05:05:09;92439.69;;;5.83;87.48
61870;BME280;47810;42.264;23.826;2023-04-04T05:07:35;92440.09;;;5.77;88.24
61870;BME280;47810;42.264;23.826;2023-04-04T05:10:00;92452.34;;;5.90;88.22
61870;BME280;47810;42.264;23.826;2023-04-04T05:12:26;92457.72;;;5.88;87.70
61870;BME280;47810;42.264;23.826;2023-04-04T05:14:52;92452.16;;;5.80;88.17
61870;BME280;47810;42.264;23.826;2023-04-04T05:17:18;92454.06;;;5.65;88.65
61870;BME280;47810;42.264;23.826;2023-04-04T05:19:43;92445.06;;;5.69;88.62
61870;BME280;47810;42.264;23.826;2023-04-04T05:22:09;92448.78;;;6.03;87.35
61870;BME280;47810;42.264;23.826;2023-04-04T05:24:34;92450.91;;;5.86;87.55
61870;BME280;47810;42.264;23.826;2023-04-04T05:27:00;92447.72;;;6.06;88.08
61870;BME280;47810;42.264;23.826;2023-04-04T05:29:26;92437.47;;;6.40;86.86
61870;BME280;47810;42.264;23.826;2023-04-04T05:31:51;92439.88;;;6.43;87.54
61870;BME280;47810;42.264;23.826;2023-04-04T05:34:17;92441.97;;;6.38;88.17
61870;BME280;47810;42.264;23.826;2023-04-04T05:36:42;92444.47;;;6.52;89.45
61870;BME280;47810;42.264;23.826;2023-04-04T05:39:08;92449.94;;;6.49;89.34
61870;BME280;47810;42.264;23.826;2023-04-04T05:41:33;92448.78;;;6.64;89.97
61870;BME280;47810;42.264;23.826;2023-04-04T05:43:59;92449.31;;;6.69;89.80
61870;BME280;47810;42.264;23.826;2023-04-04T05:46:58;92451.88;;;6.58;90.41
61870;BME280;47810;42.264;23.826;2023-04-04T05:49:23;92449.69;;;6.52;91.28
61870;BME280;47810;42.264;23.826;2023-04-04T05:51:49;92453.16;;;6.52;90.94
61870;BME280;47810;42.264;23.826;2023-04-04T05:54:14;92456.94;;;6.72;90.45
61870;BME280;47810;42.264;23.826;2023-04-04T05:56:40;92457.03;;;6.95;90.57
61870;BME280;47810;42.264;23.826;2023-04-04T05:59:05;92462.59;;;7.14;89.53
61870;BME280;47810;42.264;23.826;2023-04-04T06:01:31;92463.81;;;7.21;89.39
61870;BME280;47810;42.264;23.826;2023-04-04T06:03:57;92467.31;;;7.33;89.32
61870;BME280;47810;42.264;23.826;2023-04-04T06:06:25;92468.19;;;7.45;88.36
61870;BME280;47810;42.264;23.826;2023-04-04T06:08:50;92467.94;;;7.48;88.44
61870;BME280;47810;42.264;23.826;2023-04-04T06:11:16;92474.13;;;7.47;88.62
61870;BME280;47810;42.264;23.826;2023-04-04T06:13:41;92470.59;;;7.59;88.38
61870;BME280;47810;42.264;23.826;2023-04-04T06:16:07;92478.47;;;7.59;88.25
61870;BME280;47810;42.264;23.826;2023-04-04T06:18:32;92478.00;;;7.65;87.22
61870;BME280;47810;42.264;23.826;2023-04-04T06:20:58;92478.94;;;7.53;87.77
61870;BME280;47810;42.264;23.826;2023-04-04T06:23:23;92482.06;;;7.58;88.17
61870;BME280;47810;42.264;23.826;2023-04-04T06:25:49;92486.25;;;7.61;88.30
61870;BME280;47810;42.264;23.826;2023-04-04T06:28:15;92490.88;;;7.57;88.11
61870;BME280;47810;42.264;23.826;2023-04-04T06:30:42;92489.69;;;7.73;88.07
61870;BME280;47810;42.264;23.826;2023-04-04T06:33:08;92489.09;;;7.69;88.31
61870;BME280;47810;42.264;23.826;2023-04-04T06:35:34;92495.09;;;7.71;86.31
61870;BME280;47810;42.264;23.826;2023-04-04T06:38:00;92501.88;;;7.62;87.43
61870;BME280;47810;42.264;23.826;2023-04-04T06:40:25;92504.72;;;7.59;87.54
61870;BME280;47810;42.264;23.826;2023-04-04T06:42:51;92516.28;;;7.57;87.67
61870;BME280;47810;42.264;23.826;2023-04-04T06:45:19;92516.19;;;7.58;87.66
61870;BME280;47810;42.264;23.826;2023-04-04T06:47:45;92519.06;;;7.55;88.08
61870;BME280;47810;42.264;23.826;2023-04-04T06:50:10;92525.97;;;7.56;88.21
61870;BME280;47810;42.264;23.826;2023-04-04T06:52:36;92519.75;;;7.57;88.36
61870;BME280;47810;42.264;23.826;2023-04-04T06:55:03;92521.91;;;7.63;88.34
61870;BME280;47810;42.264;23.826;2023-04-04T06:57:32;92524.06;;;7.58;88.32
61870;BME280;47810;42.264;23.826;2023-04-04T06:59:57;92525.19;;;7.78;87.04
61870;BME280;47810;42.264;23.826;2023-04-04T07:02:23;92522.88;;;7.74;86.08
61870;BME280;47810;42.264;23.826;2023-04-04T07:04:48;92526.72;;;7.69;86.29
61870;BME280;47810;42.264;23.826;2023-04-04T07:07:14;92531.75;;;7.73;84.72
61870;BME280;47810;42.264;23.826;2023-04-04T07:09:40;92532.44;;;7.63;84.31
61870;BME280;47810;42.264;23.826;2023-04-04T07:12:06;92531.38;;;7.66;83.80
61870;BME280;47810;42.264;23.826;2023-04-04T07:14:32;92537.59;;;7.76;82.71
61870;BME280;47810;42.264;23.826;2023-04-04T07:16:58;92533.16;;;7.77;82.88
61870;BME280;47810;42.264;23.826;2023-04-04T07:19:24;92527.69;;;7.80;83.51
61870;BME280;47810;42.264;23.826;2023-04-04T07:21:53;92538.00;;;7.94;84.02
61870;BME280;47810;42.264;23.826;2023-04-04T07:24:19;92537.75;;;8.08;83.53
61870;BME280;47810;42.264;23.826;2023-04-04T07:26:44;92535.75;;;8.23;83.47
61870;BME280;47810;42.264;23.826;2023-04-04T07:29:10;92529.28;;;8.27;83.66
61870;BME280;47810;42.264;23.826;2023-04-04T07:31:35;92532.06;;;8.26;83.66
61870;BME280;47810;42.264;23.826;2023-04-04T07:34:01;92537.56;;;8.56;80.85
61870;BME280;47810;42.264;23.826;2023-04-04T07:36:27;92531.84;;;8.40;81.59
61870;BME280;47810;42.264;23.826;2023-04-04T07:38:53;92534.94;;;8.45;82.68
61870;BME280;47810;42.264;23.826;2023-04-04T07:41:19;92537.09;;;8.51;82.97
61870;BME280;47810;42.264;23.826;2023-04-04T07:43:45;92537.28;;;8.14;82.63
61870;BME280;47810;42.264;23.826;2023-04-04T07:46:11;92532.66;;;8.29;82.97
61870;BME280;47810;42.264;23.826;2023-04-04T07:48:37;92532.88;;;8.60;81.94
61870;BME280;47810;42.264;23.826;2023-04-04T07:51:03;92529.78;;;8.32;81.20
61870;BME280;47810;42.264;23.826;2023-04-04T07:53:29;92535.41;;;8.61;81.47
61870;BME280;47810;42.264;23.826;2023-04-04T07:55:54;92535.13;;;8.87;82.07
61870;BME280;47810;42.264;23.826;2023-04-04T07:58:20;92528.41;;;9.05;82.51
61870;BME280;47810;42.264;23.826;2023-04-04T08:00:46;92534.66;;;8.93;83.72
61870;BME280;47810;42.264;23.826;2023-04-04T08:03:12;92543.44;;;9.15;83.77
61870;BME280;47810;42.264;23.826;2023-04-04T08:05:38;92545.38;;;9.45;82.39
61870;BME280;47810;42.264;23.826;2023-04-04T08:08:05;92536.31;;;9.59;82.68
61870;BME280;47810;42.264;23.826;2023-04-04T08:10:30;92536.31;;;9.59;83.58
61870;BME280;47810;42.264;23.826;2023-04-04T08:12:56;92533.22;;;9.86;82.00
61870;BME280;47810;42.264;23.826;2023-04-04T08:15:21;92530.81;;;10.03;81.45
61870;BME280;47810;42.264;23.826;2023-04-04T08:17:47;92527.91;;;10.07;81.31
61870;BME280;47810;42.264;23.826;2023-04-04T08:20:13;92532.34;;;10.06;81.47
61870;BME280;47810;42.264;23.826;2023-04-04T08:22:40;92540.47;;;9.93;81.65
61870;BME280;47810;42.264;23.826;2023-04-04T08:25:06;92538.00;;;10.01;80.02
61870;BME280;47810;42.264;23.826;2023-04-04T08:27:32;92540.66;;;9.80;80.49
61870;BME280;47810;42.264;23.826;2023-04-04T08:29:58;92540.72;;;9.90;82.88
61870;BME280;47810;42.264;23.826;2023-04-04T08:32:23;92541.34;;;10.03;81.02
61870;BME280;47810;42.264;23.826;2023-04-04T08:34:49;92547.25;;;9.75;81.87
61870;BME280;47810;42.264;23.826;2023-04-04T08:37:15;92548.78;;;9.89;80.84
61870;BME280;47810;42.264;23.826;2023-04-04T08:39:41;92546.69;;;9.71;82.78
61870;BME280;47810;42.264;23.826;2023-04-04T08:42:07;92548.41;;;9.82;82.99
61870;BME280;47810;42.264;23.826;2023-04-04T08:44:33;92544.22;;;9.59;83.04
61870;BME280;47810;42.264;23.826;2023-04-04T08:47:04;92546.44;;;9.53;82.77
61870;BME280;47810;42.264;23.826;2023-04-04T08:49:36;92548.75;;;9.68;81.56
61870;BME280;47810;42.264;23.826;2023-04-04T08:52:02;92548.41;;;9.61;81.78
61870;BME280;47810;42.264;23.826;2023-04-04T08:54:29;92554.78;;;9.59;82.09
61870;BME280;47810;42.264;23.826;2023-04-04T08:56:55;92549.84;;;9.86;81.24
61870;BME280;47810;42.264;23.826;2023-04-04T08:59:21;92561.66;;;9.71;80.69
61870;BME280;47810;42.264;23.826;2023-04-04T09:01:47;92556.56;;;9.26;81.93
61870;BME280;47810;42.264;23.826;2023-04-04T09:04:13;92555.84;;;9.35;83.02
61870;BME280;47810;42.264;23.826;2023-04-04T09:06:40;92557.06;;;9.31;83.78
61870;BME280;47810;42.264;23.826;2023-04-04T09:09:06;92554.06;;;9.56;83.91
61870;BME280;47810;42.264;23.826;2023-04-04T09:11:31;92558.13;;;9.82;81.35
61870;BME280;47810;42.264;23.826;2023-04-04T09:13:57;92562.72;;;9.47;82.28
61870;BME280;47810;42.264;23.826;2023-04-04T09:16:43;92558.06;;;9.72;81.09
61870;BME280;47810;42.264;23.826;2023-04-04T09:19:08;92557.81;;;9.75;80.71
61870;BME280;47810;42.264;23.826;2023-04-04T09:21:34;92555.59;;;9.38;81.88
61870;BME280;47810;42.264;23.826;2023-04-04T09:24:01;92557.22;;;9.50;81.34
61870;BME280;47810;42.264;23.826;2023-04-04T09:26:27;92554.09;;;9.77;81.57
61870;BME280;47810;42.264;23.826;2023-04-04T09:28:53;92555.16;;;9.54;80.84
61870;BME280;47810;42.264;23.826;2023-04-04T09:31:19;92556.53;;;9.90;81.21
61870;BME280;47810;42.264;23.826;2023-04-04T09:33:47;92550.03;;;10.15;80.03
61870;BME280;47810;42.264;23.826;2023-04-04T09:36:13;92557.00;;;10.37;78.93
61870;BME280;47810;42.264;23.826;2023-04-04T09:38:39;92552.34;;;10.51;79.09
61870;BME280;47810;42.264;23.826;2023-04-04T09:41:08;92548.66;;;10.63;78.32
61870;BME280;47810;42.264;23.826;2023-04-04T09:43:35;92552.22;;;10.62;76.70
61870;BME280;47810;42.264;23.826;2023-04-04T09:46:01;92557.09;;;10.57;77.42
61870;BME280;47810;42.264;23.826;2023-04-04T09:48:31;92557.94;;;10.36;78.92
61870;BME280;47810;42.264;23.826;2023-04-04T09:50:57;92566.75;;;10.25;78.96
61870;BME280;47810;42.264;23.826;2023-04-04T09:53:23;92574.50;;;9.64;78.05
61870;BME280;47810;42.264;23.826;2023-04-04T09:55:57;92580.81;;;9.08;77.53
61870;BME280;47810;42.264;23.826;2023-04-04T09:58:23;92586.47;;;8.70;78.40
61870;BME280;47810;42.264;23.826;2023-04-04T10:00:51;92595.38;;;8.34;81.36
61870;BME280;47810;42.264;23.826;2023-04-04T10:03:17;92593.00;;;8.20;80.41
61870;BME280;47810;42.264;23.826;2023-04-04T10:05:46;92603.47;;;8.08;82.80
61870;BME280;47810;42.264;23.826;2023-04-04T10:08:20;92604.59;;;7.46;83.50
61870;BME280;47810;42.264;23.826;2023-04-04T10:10:47;92612.25;;;7.85;83.04
61870;BME280;47810;42.264;23.826;2023-04-04T10:13:21;92623.75;;;7.84;83.41
61870;BME280;47810;42.264;23.826;2023-04-04T10:15:47;92621.28;;;7.69;83.75
61870;BME280;47810;42.264;23.826;2023-04-04T10:18:12;92634.94;;;7.86;83.07
61870;BME280;47810;42.264;23.826;2023-04-04T10:20:38;92625.91;;;7.90;82.56
61870;BME280;47810;42.264;23.826;2023-04-04T10:23:05;92630.88;;;7.82;82.02
61870;BME280;47810;42.264;23.826;2023-04-04T10:25:31;92633.00;;;7.77;82.93
61870;BME280;47810;42.264;23.826;2023-04-04T10:27:56;92625.03;;;7.54;83.26
61870;BME280;47810;42.264;23.826;2023-04-04T10:30:22;92632.09;;;7.30;84.10
61870;BME280;47810;42.264;23.826;2023-04-04T10:32:49;92627.19;;;7.49;83.99
61870;BME280;47810;42.264;23.826;2023-04-04T10:35:18;92645.47;;;7.86;82.35
61870;BME280;47810;42.264;23.826;2023-04-04T10:37:56;92647.56;;;8.05;81.61
61870;BME280;47810;42.264;23.826;2023-04-04T10:40:23;92653.13;;;7.89;81.22
61870;BME280;47810;42.264;23.826;2023-04-04T10:42:50;92661.88;;;8.01;81.23
61870;BME280;47810;42.264;23.826;2023-04-04T10:45:16;92663.72;;;8.11;79.96
61870;BME280;47810;42.264;23.826;2023-04-04T10:47:42;92658.59;;;7.86;78.83
61870;BME280;47810;42.264;23.826;2023-04-04T10:50:09;92664.75;;;7.74;79.92
61870;BME280;47810;42.264;23.826;2023-04-04T10:52:39;92671.50;;;7.78;79.71
61870;BME280;47810;42.264;23.826;2023-04-04T10:55:07;92675.38;;;7.96;77.40
61870;BME280;47810;42.264;23.826;2023-04-04T10:57:35;92679.63;;;7.86;77.48
61870;BME280;47810;42.264;23.826;2023-04-04T11:07:43;92679.47;;;7.76;78.49
61870;BME280;47810;42.264;23.826;2023-04-04T11:10:13;92693.34;;;7.78;78.83
61870;BME280;47810;42.264;23.826;2023-04-04T11:12:42;92691.50;;;7.07;79.48
61870;BME280;47810;42.264;23.826;2023-04-04T11:15:12;92691.44;;;6.70;81.06
61870;BME280;47810;42.264;23.826;2023-04-04T11:20:14;92690.28;;;6.23;81.81
61870;BME280;47810;42.264;23.826;2023-04-04T11:22:41;92698.56;;;5.90;84.70
61870;BME280;47810;42.264;23.826;2023-04-04T11:27:54;92694.25;;;6.54;83.60
61870;BME280;47810;42.264;23.826;2023-04-04T11:30:26;92688.81;;;6.32;85.02
61870;BME280;47810;42.264;23.826;2023-04-04T11:32:58;92692.59;;;6.40;84.20
61870;BME280;47810;42.264;23.826;2023-04-04T11:35:25;92695.38;;;5.99;85.29
61870;BME280;47810;42.264;23.826;2023-04-04T11:40:18;92697.19;;;6.11;84.81
61870;BME280;47810;42.264;23.826;2023-04-04T11:42:43;92696.97;;;6.14;85.25
61870;BME280;47810;42.264;23.826;2023-04-04T11:45:17;92701.28;;;6.41;85.44
61870;BME280;47810;42.264;23.826;2023-04-04T11:47:45;92699.69;;;6.25;85.85
61870;BME280;47810;42.264;23.826;2023-04-04T11:50:12;92699.31;;;6.57;85.78
61870;BME280;47810;42.264;23.826;2023-04-04T11:52:39;92708.19;;;6.93;84.74
61870;BME280;47810;42.264;23.826;2023-04-04T11:55:15;92707.16;;;6.70;82.53
61870;BME280;47810;42.264;23.826;2023-04-04T11:57:41;92706.13;;;6.72;84.63
61870;BME280;47810;42.264;23.826;2023-04-04T12:00:07;92703.16;;;6.51;86.04
61870;BME280;47810;42.264;23.826;2023-04-04T12:02:33;92711.03;;;6.77;85.23
61870;BME280;47810;42.264;23.826;2023-04-04T12:04:59;92718.59;;;6.82;85.54
61870;BME280;47810;42.264;23.826;2023-04-04T12:07:25;92706.53;;;6.66;85.59
61870;BME280;47810;42.264;23.826;2023-04-04T12:09:51;92710.63;;;6.70;85.22
61870;BME280;47810;42.264;23.826;2023-04-04T12:12:17;92718.19;;;6.88;84.95
61870;BME280;47810;42.264;23.826;2023-04-04T12:14:43;92717.34;;;6.74;85.00
61870;BME280;47810;42.264;23.826;2023-04-04T12:17:09;92720.69;;;6.51;85.52
61870;BME280;47810;42.264;23.826;2023-04-04T12:19:35;92722.91;;;6.57;86.13
61870;BME280;47810;42.264;23.826;2023-04-04T12:22:01;92725.63;;;6.43;86.51
61870;BME280;47810;42.264;23.826;2023-04-04T12:24:27;92723.00;;;6.43;85.54
61870;BME280;47810;42.264;23.826;2023-04-04T12:26:52;92723.84;;;6.30;86.45
61870;BME280;47810;42.264;23.826;2023-04-04T12:29:19;92727.66;;;5.99;87.00
61870;BME280;47810;42.264;23.826;2023-04-04T12:31:46;92725.78;;;5.87;87.59
61870;BME280;47810;42.264;23.826;2023-04-04T12:34:16;92724.81;;;6.02;85.64
61870;BME280;47810;42.264;23.826;2023-04-04T12:36:42;92733.03;;;5.83;84.49
61870;BME280;47810;42.264;23.826;2023-04-04T12:39:08;92738.63;;;5.92;84.94
61870;BME280;47810;42.264;23.826;2023-04-04T12:41:45;92731.13;;;5.46;85.82
61870;BME280;47810;42.264;23.826;2023-04-04T12:44:23;92739.69;;;5.48;86.41
61870;BME280;47810;42.264;23.826;2023-04-04T12:46:49;92736.56;;;5.43;85.33
61870;BME280;47810;42.264;23.826;2023-04-04T12:49:19;92738.03;;;5.47;86.66
61870;BME280;47810;42.264;23.826;2023-04-04T12:51:45;92735.94;;;5.52;86.43
61870;BME280;47810;42.264;23.826;2023-04-04T12:54:23;92732.53;;;5.64;85.61
61870;BME280;47810;42.264;23.826;2023-04-04T12:56:53;92745.38;;;5.54;84.80
61870;BME280;47810;42.264;23.826;2023-04-04T12:59:20;92749.06;;;5.37;85.95
61870;BME280;47810;42.264;23.826;2023-04-04T13:01:47;92749.47;;;5.31;85.45
61870;BME280;47810;42.264;23.826;2023-04-04T13:04:13;92758.44;;;5.27;84.37
61870;BME280;47810;42.264;23.826;2023-04-04T13:06:45;92751.25;;;5.17;85.68
61870;BME280;47810;42.264;23.826;2023-04-04T13:09:18;92756.66;;;5.13;85.20
61870;BME280;47810;42.264;23.826;2023-04-04T13:12:17;92762.66;;;5.30;86.00
61870;BME280;47810;42.264;23.826;2023-04-04T13:17:22;92765.72;;;5.22;84.51
61870;BME280;47810;42.264;23.826;2023-04-04T13:19:48;92771.84;;;4.80;86.47